Terminal Aerodrome Forecast
Issued by NWS

Home | Current Version | Previous Version | Graphics & Text | Print | Product List | Glossary On
Versions: 1 2 3 4 5 6 7 8 9 10 11 12 13 14 15
224
FTUS42 KMHX 192329
TAFISO
TAF
KISO 192329Z 2000/2024 24005KT P6SM FEW060
     FM200900 00000KT 5SM BR SCT250
     FM201200 00000KT P6SM FEW040
     FM202000 27006KT P6SM SCT040
      AMD LTD TO CLD VIS AND WIND=

USA.gov is the U.S. government's official web portal to all federal, state and local government web resources and services.